Time;durP1;ratioP1;P1;durP2;ratioP2;P2;SDS_P1;SDS_P2;PMS_P1;PMS_P2;Temp;Humidity;BMP_temperature;BMP_pressure;BME280_temperature;BME280_humidity;BME280_pressure;Samples;Min_cycle;Max_cycle;Signal;HPM_P1;HPM_P2
2023/12/04 00:01:45;;;;;;;11.93;8.73;;;;;;;;;;5065257;28;20199;-69
2023/12/04 00:04:13;;;;;;;11.20;8.53;;;;;;;;;;5062117;28;20210;-68
2023/12/04 00:06:42;;;;;;;10.90;8.10;;;;;;;;;;5067212;28;20195;-68
2023/12/04 00:09:09;;;;;;;10.03;8.33;;;;;;;;;;5065323;28;20213;-68
2023/12/04 00:11:36;;;;;;;9.07;7.20;;;;;;;;;;5058472;28;20214;-68
2023/12/04 00:14:03;;;;;;;11.93;9.03;;;;;;;;;;5059491;28;20230;-68
2023/12/04 00:16:30;;;;;;;13.97;9.67;;;;;;;;;;5059606;28;20218;-69
2023/12/04 00:18:57;;;;;;;12.73;9.50;;;;;;;;;;5057288;28;20221;-69
2023/12/04 00:21:24;;;;;;;12.27;9.50;;;;;;;;;;5063855;28;20206;-68
2023/12/04 00:23:53;;;;;;;12.67;9.77;;;;;;;;;;5061295;28;20199;-68
2023/12/04 00:26:20;;;;;;;15.10;10.60;;;;;;;;;;5063828;28;20211;-68
2023/12/04 00:28:47;;;;;;;14.73;10.43;;;;;;;;;;5063415;28;20206;-68
2023/12/04 00:31:14;;;;;;;13.10;9.63;;;;;;;;;;5063358;28;20211;-68
2023/12/04 00:33:41;;;;;;;14.57;10.77;;;;;;;;;;5061583;28;20203;-68
2023/12/04 00:36:09;;;;;;;14.40;9.93;;;;;;;;;;5064697;28;20222;-68
2023/12/04 00:38:36;;;;;;;13.80;9.63;;;;;;;;;;5061559;28;20198;-68
2023/12/04 00:41:05;;;;;;;13.03;9.53;;;;;;;;;;5063852;28;20202;-68
2023/12/04 00:43:32;;;;;;;13.23;9.40;;;;;;;;;;5057810;28;20259;-68
2023/12/04 00:45:59;;;;;;;10.97;8.63;;;;;;;;;;5060643;28;20195;-68
2023/12/04 00:48:26;;;;;;;12.90;9.47;;;;;;;;;;5060756;28;20214;-68
2023/12/04 00:50:53;;;;;;;13.97;9.43;;;;;;;;;;5058939;28;20206;-68
2023/12/04 00:53:20;;;;;;;12.00;9.20;;;;;;;;;;5060355;28;20203;-68
2023/12/04 00:55:47;;;;;;;11.43;9.03;;;;;;;;;;5062082;28;20210;-68
2023/12/04 00:58:16;;;;;;;12.23;8.47;;;;;;;;;;5062833;28;20211;-69
2023/12/04 01:00:43;;;;;;;9.83;8.10;;;;;;;;;;5064342;28;20245;-69
2023/12/04 01:03:10;;;;;;;10.80;8.13;;;;;;;;;;5058532;28;20207;-68
2023/12/04 01:05:37;;;;;;;10.63;8.17;;;;;;;;;;5060574;28;20202;-68
2023/12/04 01:08:04;;;;;;;11.63;8.93;;;;;;;;;;5065528;28;20203;-68
2023/12/04 01:10:31;;;;;;;11.90;8.67;;;;;;;;;;5061977;28;20203;-69
2023/12/04 01:12:58;;;;;;;10.37;7.83;;;;;;;;;;5063933;28;20211;-68
2023/12/04 01:15:27;;;;;;;14.53;8.53;;;;;;;;;;5061705;28;20215;-68
2023/12/04 01:17:54;;;;;;;10.03;8.17;;;;;;;;;;5055550;28;20204;-68
2023/12/04 01:20:21;;;;;;;9.67;7.93;;;;;;;;;;5060184;28;20203;-69
2023/12/04 01:22:48;;;;;;;9.67;7.73;;;;;;;;;;5065370;28;20207;-68
2023/12/04 01:25:15;;;;;;;9.00;7.57;;;;;;;;;;5066582;28;20269;-68
2023/12/04 01:27:43;;;;;;;8.53;6.60;;;;;;;;;;5063099;28;20289;-68
2023/12/04 01:30:10;;;;;;;11.23;7.13;;;;;;;;;;5067780;28;20218;-68
2023/12/04 01:32:39;;;;;;;8.63;7.23;;;;;;;;;;5065572;28;20204;-68
2023/12/04 01:35:06;;;;;;;8.83;7.20;;;;;;;;;;5065682;28;20316;-65
2023/12/04 01:37:33;;;;;;;7.13;6.27;;;;;;;;;;5070882;28;20209;-63
2023/12/04 01:40:02;;;;;;;8.47;6.50;;;;;;;;;;5068693;28;20202;-63
2023/12/04 01:42:29;;;;;;;9.40;7.33;;;;;;;;;;5063539;28;20238;-63
2023/12/04 01:44:56;;;;;;;8.67;6.43;;;;;;;;;;5067976;28;20216;-63
2023/12/04 01:47:23;;;;;;;10.27;6.90;;;;;;;;;;5067543;28;20211;-64
2023/12/04 01:49:52;;;;;;;8.00;6.20;;;;;;;;;;5060715;28;20210;-63
2023/12/04 01:52:19;;;;;;;7.33;6.00;;;;;;;;;;5061202;28;20210;-63
2023/12/04 01:54:46;;;;;;;7.63;6.33;;;;;;;;;;5063505;28;20200;-64
2023/12/04 01:57:13;;;;;;;8.10;6.50;;;;;;;;;;5068502;28;20232;-63
2023/12/04 01:59:40;;;;;;;7.93;6.20;;;;;;;;;;5064732;28;20226;-63
2023/12/04 02:02:07;;;;;;;7.93;6.13;;;;;;;;;;5069118;28;20217;-64
2023/12/04 02:04:35;;;;;;;7.73;6.30;;;;;;;;;;5068787;28;20204;-63
2023/12/04 02:07:04;;;;;;;7.03;5.70;;;;;;;;;;5066332;28;20206;-63
2023/12/04 02:09:32;;;;;;;6.53;5.27;;;;;;;;;;5066264;28;20208;-63
2023/12/04 02:12:00;;;;;;;7.97;6.20;;;;;;;;;;5069188;28;20199;-63
2023/12/04 02:14:27;;;;;;;8.97;6.03;;;;;;;;;;5062653;28;20206;-63
2023/12/04 02:16:56;;;;;;;9.37;6.47;;;;;;;;;;5064396;28;20213;-63
2023/12/04 02:19:23;;;;;;;7.50;6.40;;;;;;;;;;5068182;28;20207;-64
2023/12/04 02:21:50;;;;;;;8.67;6.83;;;;;;;;;;5071494;28;20213;-63
2023/12/04 02:24:19;;;;;;;7.70;6.60;;;;;;;;;;5068987;28;20225;-63
2023/12/04 02:26:48;;;;;;;9.17;6.70;;;;;;;;;;5065593;28;20198;-63
2023/12/04 02:29:16;;;;;;;9.00;6.97;;;;;;;;;;5061049;28;20214;-64
2023/12/04 02:31:44;;;;;;;7.53;6.73;;;;;;;;;;5065915;28;20217;-63
2023/12/04 02:34:12;;;;;;;9.57;6.73;;;;;;;;;;5067019;28;20199;-63
2023/12/04 02:36:40;;;;;;;9.93;7.23;;;;;;;;;;5061801;28;20218;-63
2023/12/04 02:39:07;;;;;;;10.27;7.47;;;;;;;;;;5066012;28;20216;-63
2023/12/04 02:41:36;;;;;;;9.03;7.00;;;;;;;;;;5066808;28;20221;-64
2023/12/04 02:44:03;;;;;;;10.47;7.70;;;;;;;;;;5070201;28;20224;-63
2023/12/04 02:46:30;;;;;;;9.97;7.90;;;;;;;;;;5063714;28;20199;-64
2023/12/04 02:48:57;;;;;;;9.10;7.40;;;;;;;;;;5057274;28;20199;-64
2023/12/04 02:51:26;;;;;;;10.30;7.00;;;;;;;;;;5064047;28;20209;-63
2023/12/04 02:53:53;;;;;;;10.17;8.00;;;;;;;;;;5064773;28;20259;-64
2023/12/04 02:56:20;;;;;;;8.93;7.27;;;;;;;;;;5061768;28;20312;-63
2023/12/04 02:58:48;;;;;;;9.23;7.23;;;;;;;;;;5062356;28;20209;-65
2023/12/04 03:01:15;;;;;;;10.67;7.10;;;;;;;;;;5064730;28;20203;-63
2023/12/04 03:03:43;;;;;;;9.70;7.17;;;;;;;;;;5061543;28;20229;-63
2023/12/04 03:06:10;;;;;;;10.07;7.50;;;;;;;;;;5067071;28;20289;-64
2023/12/04 03:08:37;;;;;;;10.00;7.60;;;;;;;;;;5066936;28;20217;-63
2023/12/04 03:11:04;;;;;;;8.07;6.97;;;;;;;;;;5064615;28;20206;-65
2023/12/04 03:13:32;;;;;;;9.43;7.23;;;;;;;;;;5061538;28;20202;-63
2023/12/04 03:16:00;;;;;;;9.07;7.13;;;;;;;;;;5063297;28;20230;-63
2023/12/04 03:18:28;;;;;;;9.63;7.07;;;;;;;;;;5062029;28;20205;-64
2023/12/04 03:20:55;;;;;;;9.53;8.00;;;;;;;;;;5062141;28;20654;-63
2023/12/04 03:23:23;;;;;;;9.70;7.63;;;;;;;;;;5068249;28;20206;-63
2023/12/04 03:25:50;;;;;;;9.73;7.60;;;;;;;;;;5064663;28;20215;-65
2023/12/04 03:28:17;;;;;;;9.40;7.47;;;;;;;;;;5065235;28;20208;-63
2023/12/04 03:30:45;;;;;;;9.67;7.43;;;;;;;;;;5065765;28;20207;-63
2023/12/04 03:33:13;;;;;;;10.13;7.70;;;;;;;;;;5069465;28;20206;-62
2023/12/04 03:35:40;;;;;;;9.23;7.30;;;;;;;;;;5062229;28;20211;-64
2023/12/04 03:38:08;;;;;;;9.13;7.20;;;;;;;;;;5061658;28;20210;-64
2023/12/04 03:40:35;;;;;;;11.73;8.17;;;;;;;;;;5059431;28;20195;-63
2023/12/04 03:43:02;;;;;;;10.37;8.30;;;;;;;;;;5065864;28;20241;-64
2023/12/04 03:45:29;;;;;;;12.97;9.37;;;;;;;;;;5062665;28;20199;-63
2023/12/04 03:47:56;;;;;;;12.77;9.77;;;;;;;;;;5064696;28;20206;-63
2023/12/04 03:50:25;;;;;;;17.63;12.13;;;;;;;;;;5064153;28;20450;-64
2023/12/04 03:52:52;;;;;;;13.23;10.07;;;;;;;;;;5066041;28;20203;-63
2023/12/04 03:55:19;;;;;;;11.40;8.77;;;;;;;;;;5063111;28;20208;-69
2023/12/04 03:57:47;;;;;;;9.43;7.30;;;;;;;;;;5065874;28;20299;-68
2023/12/04 04:00:14;;;;;;;8.37;6.90;;;;;;;;;;5062578;28;20602;-68
2023/12/04 04:02:41;;;;;;;8.67;6.73;;;;;;;;;;5065320;28;20207;-68
2023/12/04 04:05:09;;;;;;;7.70;6.40;;;;;;;;;;5063316;28;20232;-68
2023/12/04 04:07:37;;;;;;;7.90;6.40;;;;;;;;;;5063926;28;20206;-69
2023/12/04 04:10:05;;;;;;;8.13;6.70;;;;;;;;;;5060434;28;20211;-68
2023/12/04 04:12:32;;;;;;;7.30;6.17;;;;;;;;;;5060813;28;20204;-69
2023/12/04 04:14:59;;;;;;;7.07;5.83;;;;;;;;;;5059887;28;20204;-69
2023/12/04 04:17:26;;;;;;;7.13;5.80;;;;;;;;;;5061426;28;20219;-68
2023/12/04 04:19:53;;;;;;;6.40;5.27;;;;;;;;;;5057980;28;20203;-69
2023/12/04 04:22:21;;;;;;;8.43;5.60;;;;;;;;;;5060748;28;20208;-68
2023/12/04 04:24:49;;;;;;;5.67;4.77;;;;;;;;;;5060412;28;20294;-68
2023/12/04 04:27:16;;;;;;;7.77;5.67;;;;;;;;;;5061452;28;20203;-68
2023/12/04 04:29:44;;;;;;;5.90;5.30;;;;;;;;;;5065667;28;20520;-68
2023/12/04 04:32:11;;;;;;;5.80;4.97;;;;;;;;;;5063832;28;20214;-69
2023/12/04 04:34:38;;;;;;;6.93;5.33;;;;;;;;;;5059885;28;20203;-68
2023/12/04 04:37:05;;;;;;;7.83;6.10;;;;;;;;;;5060560;28;20237;-68
2023/12/04 04:39:32;;;;;;;8.93;6.43;;;;;;;;;;5062319;28;20200;-68
2023/12/04 04:42:01;;;;;;;8.93;7.20;;;;;;;;;;5060079;28;20742;-68
2023/12/04 04:44:28;;;;;;;9.83;7.07;;;;;;;;;;5064492;28;20195;-68
2023/12/04 04:46:55;;;;;;;9.17;7.03;;;;;;;;;;5056199;28;20196;-68
2023/12/04 04:49:22;;;;;;;8.30;6.57;;;;;;;;;;5060547;28;20206;-68
2023/12/04 04:51:50;;;;;;;8.90;7.03;;;;;;;;;;5061205;28;20252;-69
2023/12/04 04:54:17;;;;;;;8.23;7.03;;;;;;;;;;5064803;28;20204;-69
2023/12/04 04:56:44;;;;;;;8.40;7.00;;;;;;;;;;5062066;28;20219;-68
2023/12/04 04:59:12;;;;;;;10.63;7.03;;;;;;;;;;5069618;28;20199;-69
2023/12/04 05:01:39;;;;;;;10.73;7.67;;;;;;;;;;5065786;28;20209;-69
2023/12/04 05:04:06;;;;;;;8.63;6.67;;;;;;;;;;5064591;28;20212;-69
2023/12/04 05:06:34;;;;;;;9.90;7.53;;;;;;;;;;5070718;28;20294;-63
2023/12/04 05:09:01;;;;;;;9.40;7.27;;;;;;;;;;5071590;28;20209;-63
2023/12/04 05:11:28;;;;;;;8.33;6.37;;;;;;;;;;5073498;28;20202;-64
2023/12/04 05:13:55;;;;;;;9.20;7.43;;;;;;;;;;5068324;28;20202;-63
2023/12/04 05:16:23;;;;;;;7.97;6.53;;;;;;;;;;5070724;28;20213;-63
2023/12/04 05:18:50;;;;;;;10.00;7.03;;;;;;;;;;5064174;28;20205;-65
2023/12/04 05:21:18;;;;;;;10.07;6.97;;;;;;;;;;5069418;28;20203;-63
2023/12/04 05:23:45;;;;;;;8.93;6.47;;;;;;;;;;5065529;28;20269;-63
2023/12/04 05:26:12;;;;;;;9.13;6.60;;;;;;;;;;5062413;28;20214;-63
2023/12/04 05:28:39;;;;;;;7.43;5.90;;;;;;;;;;5065776;28;20203;-63
2023/12/04 05:31:06;;;;;;;7.10;5.63;;;;;;;;;;5069158;28;20210;-64
2023/12/04 05:33:35;;;;;;;6.83;5.67;;;;;;;;;;5069455;28;20199;-64
2023/12/04 05:36:02;;;;;;;7.30;5.73;;;;;;;;;;5071643;28;20206;-65
2023/12/04 05:38:29;;;;;;;6.63;5.60;;;;;;;;;;5066446;28;20218;-63
2023/12/04 05:40:56;;;;;;;14.83;8.70;;;;;;;;;;5065128;28;20195;-64
2023/12/04 05:43:24;;;;;;;14.97;9.70;;;;;;;;;;5062846;28;20352;-63
2023/12/04 05:45:51;;;;;;;15.30;10.37;;;;;;;;;;5063621;28;20195;-63
2023/12/04 05:48:18;;;;;;;14.83;8.87;;;;;;;;;;5064765;28;20210;-63
2023/12/04 05:50:46;;;;;;;9.30;7.30;;;;;;;;;;5067263;28;20286;-63
2023/12/04 05:53:13;;;;;;;10.13;6.73;;;;;;;;;;5062585;28;20207;-65
2023/12/04 05:55:40;;;;;;;8.87;6.10;;;;;;;;;;5056715;28;20206;-65
2023/12/04 05:58:08;;;;;;;9.60;6.23;;;;;;;;;;5055533;28;20312;-65
2023/12/04 06:00:35;;;;;;;9.30;6.40;;;;;;;;;;5055252;28;20210;-63
2023/12/04 06:03:02;;;;;;;9.23;5.67;;;;;;;;;;5060987;28;20204;-63
2023/12/04 06:05:29;;;;;;;7.50;5.30;;;;;;;;;;5054465;28;20198;-64
2023/12/04 06:07:58;;;;;;;8.23;6.00;;;;;;;;;;5056272;28;20195;-64
2023/12/04 06:10:25;;;;;;;6.77;5.07;;;;;;;;;;5053399;28;20230;-66
2023/12/04 06:12:52;;;;;;;7.43;5.37;;;;;;;;;;5056659;28;20246;-64
2023/12/04 06:15:19;;;;;;;6.20;5.20;;;;;;;;;;5056124;28;20206;-69
2023/12/04 06:17:46;;;;;;;6.23;5.10;;;;;;;;;;5051376;28;20223;-68
2023/12/04 06:20:14;;;;;;;6.77;5.37;;;;;;;;;;5053335;28;20209;-68
2023/12/04 06:22:41;;;;;;;6.63;4.73;;;;;;;;;;5054312;28;20206;-67
2023/12/04 06:25:10;;;;;;;7.70;4.57;;;;;;;;;;5052524;28;20212;-68
2023/12/04 06:27:38;;;;;;;6.10;4.80;;;;;;;;;;5053676;28;20199;-69
2023/12/04 06:30:06;;;;;;;5.53;4.93;;;;;;;;;;5056097;28;20218;-70
2023/12/04 06:32:34;;;;;;;5.50;4.37;;;;;;;;;;5052162;28;20210;-71
2023/12/04 06:35:01;;;;;;;5.83;4.87;;;;;;;;;;5053730;28;20194;-69
2023/12/04 06:37:28;;;;;;;6.13;4.77;;;;;;;;;;5054862;28;20224;-70
2023/12/04 06:39:58;;;;;;;5.80;5.00;;;;;;;;;;5052785;28;20209;-71
2023/12/04 06:42:26;;;;;;;5.87;4.50;;;;;;;;;;5055765;28;20230;-71
2023/12/04 06:44:54;;;;;;;5.77;4.87;;;;;;;;;;5053584;28;20201;-70
2023/12/04 06:47:23;;;;;;;6.80;4.57;;;;;;;;;;5056068;28;20199;-70
2023/12/04 06:49:51;;;;;;;6.20;4.80;;;;;;;;;;5053930;28;20221;-70
2023/12/04 06:52:18;;;;;;;6.13;4.53;;;;;;;;;;5053482;28;20204;-70
2023/12/04 06:54:45;;;;;;;6.40;4.83;;;;;;;;;;5054468;28;20206;-70
2023/12/04 06:57:14;;;;;;;5.10;4.60;;;;;;;;;;5050989;28;20229;-69
2023/12/04 06:59:42;;;;;;;5.43;4.57;;;;;;;;;;5051263;28;20275;-69
2023/12/04 07:02:10;;;;;;;6.77;4.87;;;;;;;;;;5056446;28;20208;-68
2023/12/04 07:04:37;;;;;;;6.00;5.20;;;;;;;;;;5051319;28;20722;-68
2023/12/04 07:07:05;;;;;;;6.40;4.90;;;;;;;;;;5053025;28;20285;-68
2023/12/04 07:09:32;;;;;;;6.60;4.97;;;;;;;;;;5054396;28;20202;-69
2023/12/04 07:12:00;;;;;;;5.80;4.70;;;;;;;;;;5056119;28;20202;-68
2023/12/04 07:14:27;;;;;;;6.50;5.30;;;;;;;;;;5053328;28;20217;-68
2023/12/04 07:16:55;;;;;;;6.57;5.60;;;;;;;;;;5052559;28;20210;-68
2023/12/04 07:19:23;;;;;;;5.57;4.87;;;;;;;;;;5053795;28;20229;-68
2023/12/04 07:21:50;;;;;;;6.13;5.20;;;;;;;;;;5056977;28;20208;-69
2023/12/04 07:24:17;;;;;;;5.63;4.57;;;;;;;;;;5057123;28;20213;-68
2023/12/04 07:26:44;;;;;;;6.07;5.07;;;;;;;;;;5062261;28;20217;-68
2023/12/04 07:29:11;;;;;;;7.23;5.27;;;;;;;;;;5053205;28;20210;-68
2023/12/04 07:31:38;;;;;;;5.67;4.90;;;;;;;;;;5053501;28;20220;-68
2023/12/04 07:34:07;;;;;;;6.17;4.93;;;;;;;;;;5052193;28;20214;-68
2023/12/04 07:36:34;;;;;;;6.50;5.37;;;;;;;;;;5051974;28;20206;-68
2023/12/04 07:39:01;;;;;;;5.63;4.90;;;;;;;;;;5048993;28;20226;-69
2023/12/04 07:41:28;;;;;;;5.90;5.20;;;;;;;;;;5051262;28;20215;-68
2023/12/04 07:43:55;;;;;;;7.27;5.60;;;;;;;;;;5055093;28;20210;-68
2023/12/04 07:46:22;;;;;;;9.47;5.37;;;;;;;;;;5055420;28;20511;-68
2023/12/04 07:48:50;;;;;;;6.47;5.30;;;;;;;;;;5051636;28;20202;-68
2023/12/04 07:51:18;;;;;;;6.77;5.77;;;;;;;;;;5052499;28;20210;-68
2023/12/04 07:53:45;;;;;;;13.50;11.70;;;;;;;;;;5054092;28;20221;-68
2023/12/04 07:56:13;;;;;;;11.20;10.00;;;;;;;;;;5052000;28;20214;-67
2023/12/04 07:58:40;;;;;;;12.83;11.27;;;;;;;;;;5051615;28;20230;-68
2023/12/04 08:01:08;;;;;;;11.23;9.07;;;;;;;;;;5053349;28;20216;-68
2023/12/04 08:03:35;;;;;;;10.37;9.27;;;;;;;;;;5050247;28;20218;-68
2023/12/04 08:06:03;;;;;;;12.37;10.50;;;;;;;;;;5051621;28;20210;-68
2023/12/04 08:08:31;;;;;;;10.67;8.67;;;;;;;;;;5051023;28;20348;-68
2023/12/04 08:10:59;;;;;;;11.30;8.93;;;;;;;;;;5052600;28;20206;-68
2023/12/04 08:13:26;;;;;;;9.90;8.30;;;;;;;;;;5048135;28;20216;-68
2023/12/04 08:15:53;;;;;;;10.80;7.80;;;;;;;;;;5057470;28;20199;-68
2023/12/04 08:18:20;;;;;;;9.70;8.00;;;;;;;;;;5052448;28;20232;-68
2023/12/04 08:20:47;;;;;;;10.00;7.10;;;;;;;;;;5052959;28;20217;-69
2023/12/04 08:23:15;;;;;;;7.90;6.43;;;;;;;;;;5051758;28;20237;-68
2023/12/04 08:25:43;;;;;;;8.50;6.37;;;;;;;;;;5055440;28;20319;-68
2023/12/04 08:28:11;;;;;;;7.73;6.53;;;;;;;;;;5052811;28;20207;-68
2023/12/04 08:30:38;;;;;;;7.97;6.60;;;;;;;;;;5053443;28;20230;-68
2023/12/04 08:33:06;;;;;;;9.50;7.40;;;;;;;;;;5053348;28;20373;-68
2023/12/04 08:35:33;;;;;;;8.97;7.63;;;;;;;;;;5053964;28;20209;-68
2023/12/04 08:38:00;;;;;;;9.93;6.87;;;;;;;;;;5056954;28;20229;-68
2023/12/04 08:40:27;;;;;;;10.23;7.03;;;;;;;;;;5056437;28;20205;-68
2023/12/04 08:42:55;;;;;;;8.77;7.10;;;;;;;;;;5054386;28;20327;-68
2023/12/04 08:45:23;;;;;;;8.53;6.40;;;;;;;;;;5055261;28;20216;-68
2023/12/04 08:47:50;;;;;;;8.50;6.97;;;;;;;;;;5057240;28;20193;-68
2023/12/04 08:50:17;;;;;;;8.17;6.60;;;;;;;;;;5055964;28;20504;-68
2023/12/04 08:52:44;;;;;;;6.40;5.73;;;;;;;;;;5054719;28;20206;-68
2023/12/04 08:55:12;;;;;;;7.13;6.20;;;;;;;;;;5055114;28;20331;-68
2023/12/04 08:57:39;;;;;;;7.40;6.20;;;;;;;;;;5055018;28;20213;-68
2023/12/04 09:00:09;;;;;;;9.60;7.90;;;;;;;;;;5055797;28;20213;-68
2023/12/04 09:02:36;;;;;;;8.63;7.57;;;;;;;;;;5056636;28;22762;-68
2023/12/04 09:05:03;;;;;;;8.43;6.80;;;;;;;;;;5057446;28;20211;-69
2023/12/04 09:07:30;;;;;;;8.17;7.03;;;;;;;;;;5053301;28;20213;-68
2023/12/04 09:09:58;;;;;;;8.47;7.00;;;;;;;;;;5061875;28;20198;-68
2023/12/04 09:12:26;;;;;;;9.90;6.17;;;;;;;;;;5055627;28;20214;-68
2023/12/04 09:14:53;;;;;;;6.93;5.67;;;;;;;;;;5054584;28;20211;-68
2023/12/04 09:17:21;;;;;;;8.07;5.87;;;;;;;;;;5053335;28;20234;-68
2023/12/04 09:19:48;;;;;;;7.50;5.33;;;;;;;;;;5053680;28;20394;-68
2023/12/04 09:22:15;;;;;;;6.53;4.80;;;;;;;;;;5054597;28;20214;-67
2023/12/04 09:24:43;;;;;;;6.20;5.00;;;;;;;;;;5054707;28;20501;-68
2023/12/04 09:27:10;;;;;;;5.60;4.73;;;;;;;;;;5057958;28;20226;-68
2023/12/04 09:29:37;;;;;;;7.50;5.73;;;;;;;;;;5056237;28;20204;-68
2023/12/04 09:32:05;;;;;;;7.10;5.53;;;;;;;;;;5056564;28;20211;-68
2023/12/04 09:34:34;;;;;;;7.00;5.80;;;;;;;;;;5054272;28;20344;-68
2023/12/04 09:37:01;;;;;;;7.23;5.90;;;;;;;;;;5053162;28;20214;-68
2023/12/04 09:39:28;;;;;;;7.73;5.70;;;;;;;;;;5056443;28;20222;-68
2023/12/04 09:41:56;;;;;;;6.43;5.57;;;;;;;;;;5051064;28;20239;-68
2023/12/04 09:44:25;;;;;;;8.10;6.27;;;;;;;;;;5053451;28;20268;-69
2023/12/04 09:46:53;;;;;;;7.80;5.67;;;;;;;;;;5053510;28;20215;-68
2023/12/04 09:49:21;;;;;;;6.70;5.93;;;;;;;;;;5055386;28;20211;-68
2023/12/04 09:51:49;;;;;;;6.57;5.40;;;;;;;;;;5056865;28;20194;-68
2023/12/04 09:54:19;;;;;;;7.40;5.53;;;;;;;;;;5055399;28;20217;-68
2023/12/04 09:56:46;;;;;;;5.97;5.10;;;;;;;;;;5060866;28;20252;-65
2023/12/04 09:59:14;;;;;;;6.43;4.80;;;;;;;;;;5055978;28;20222;-63
2023/12/04 10:01:42;;;;;;;6.40;5.07;;;;;;;;;;5054483;28;20195;-64
2023/12/04 10:04:09;;;;;;;6.00;5.40;;;;;;;;;;5057877;28;20207;-64
2023/12/04 10:06:38;;;;;;;6.30;4.60;;;;;;;;;;5057525;28;20202;-64
2023/12/04 10:09:11;;;;;;;7.03;5.40;;;;;;;;;;5063795;28;20268;-64
2023/12/04 10:11:41;;;;;;;6.30;5.13;;;;;;;;;;5056040;28;20219;-63
2023/12/04 10:14:14;;;;;;;6.03;5.10;;;;;;;;;;5058804;28;20204;-64
2023/12/04 10:16:41;;;;;;;7.83;5.23;;;;;;;;;;5059420;28;20210;-65
2023/12/04 10:19:18;;;;;;;9.53;7.63;;;;;;;;;;5057146;28;20238;-64
2023/12/04 10:21:46;;;;;;;8.57;6.20;;;;;;;;;;5059499;28;20850;-64
2023/12/04 10:24:14;;;;;;;6.83;5.60;;;;;;;;;;5059489;28;20207;-64
2023/12/04 10:26:51;;;;;;;7.50;6.07;;;;;;;;;;5055494;28;20203;-63
2023/12/04 10:29:18;;;;;;;7.50;6.13;;;;;;;;;;5056577;28;20203;-64
2023/12/04 10:31:45;;;;;;;7.00;5.87;;;;;;;;;;5058286;28;20517;-64
2023/12/04 10:34:12;;;;;;;6.93;5.80;;;;;;;;;;5057447;28;20218;-64
2023/12/04 10:36:39;;;;;;;7.20;6.20;;;;;;;;;;5056096;28;20218;-63
2023/12/04 10:39:07;;;;;;;6.53;5.57;;;;;;;;;;5055170;28;20227;-64
2023/12/04 10:41:35;;;;;;;6.70;6.07;;;;;;;;;;5056224;28;20211;-64
2023/12/04 10:44:04;;;;;;;5.97;5.20;;;;;;;;;;5056845;28;20207;-65
2023/12/04 10:46:31;;;;;;;6.47;4.93;;;;;;;;;;5056479;28;20304;-63
2023/12/04 10:48:59;;;;;;;6.10;5.17;;;;;;;;;;5053932;28;20203;-63
2023/12/04 10:51:27;;;;;;;6.77;5.90;;;;;;;;;;5054310;28;20458;-64
2023/12/04 10:53:55;;;;;;;6.27;5.67;;;;;;;;;;5054352;28;20203;-64
2023/12/04 10:56:27;;;;;;;7.13;5.27;;;;;;;;;;5055169;28;20252;-64
2023/12/04 10:58:59;;;;;;;5.70;5.10;;;;;;;;;;5055523;28;20245;-63
2023/12/04 11:01:27;;;;;;;5.53;4.70;;;;;;;;;;5053220;28;20213;-66
2023/12/04 11:03:54;;;;;;;7.60;6.30;;;;;;;;;;5052041;28;20207;-64
2023/12/04 11:06:23;;;;;;;6.00;4.83;;;;;;;;;;5054427;28;20202;-67
2023/12/04 11:08:52;;;;;;;4.60;4.20;;;;;;;;;;5053743;28;20202;-69
2023/12/04 11:11:28;;;;;;;5.80;4.70;;;;;;;;;;5052751;28;20214;-68
2023/12/04 11:13:59;;;;;;;5.00;4.50;;;;;;;;;;5056383;28;20202;-69
2023/12/04 11:16:29;;;;;;;4.70;4.30;;;;;;;;;;5056135;28;20633;-69
2023/12/04 11:18:58;;;;;;;5.70;4.80;;;;;;;;;;5053902;28;20254;-68
2023/12/04 11:21:26;;;;;;;4.50;4.03;;;;;;;;;;5056122;28;21870;-68
2023/12/04 11:23:53;;;;;;;5.97;4.70;;;;;;;;;;5053371;28;20348;-68
2023/12/04 11:26:21;;;;;;;4.20;3.80;;;;;;;;;;5051132;28;20222;-68
2023/12/04 11:28:48;;;;;;;4.33;3.93;;;;;;;;;;5057113;28;20200;-69
2023/12/04 11:31:17;;;;;;;3.70;3.40;;;;;;;;;;5052161;28;20203;-68
2023/12/04 11:33:45;;;;;;;5.77;3.87;;;;;;;;;;5051990;28;20202;-68
2023/12/04 11:36:13;;;;;;;3.93;3.53;;;;;;;;;;5055621;28;20202;-68
2023/12/04 11:38:44;;;;;;;3.60;3.30;;;;;;;;;;5055037;28;20341;-69
2023/12/04 11:41:18;;;;;;;3.67;3.37;;;;;;;;;;5055295;28;20206;-69
2023/12/04 11:43:47;;;;;;;3.50;3.20;;;;;;;;;;5052188;28;20210;-68
2023/12/04 11:46:14;;;;;;;3.60;3.17;;;;;;;;;;5056172;28;20233;-68
2023/12/04 11:48:43;;;;;;;3.20;2.90;;;;;;;;;;5053682;28;20206;-69
2023/12/04 11:51:11;;;;;;;3.27;2.97;;;;;;;;;;5051341;28;20211;-67
2023/12/04 11:53:41;;;;;;;3.30;3.00;;;;;;;;;;5052550;28;20203;-69
2023/12/04 11:56:12;;;;;;;3.17;2.87;;;;;;;;;;5053771;28;20207;-68
2023/12/04 11:58:43;;;;;;;2.67;2.47;;;;;;;;;;5055053;28;20207;-68
2023/12/04 12:01:10;;;;;;;2.83;2.57;;;;;;;;;;5054874;28;20237;-69
2023/12/04 12:03:38;;;;;;;2.60;2.40;;;;;;;;;;5052081;28;20214;-68
2023/12/04 12:06:06;;;;;;;2.90;2.70;;;;;;;;;;5054735;28;20203;-69
2023/12/04 12:08:34;;;;;;;3.10;2.70;;;;;;;;;;5053776;28;20523;-68
2023/12/04 12:11:01;;;;;;;2.67;2.40;;;;;;;;;;5053705;28;20213;-67
2023/12/04 12:13:28;;;;;;;2.60;2.40;;;;;;;;;;5058759;28;20199;-69
2023/12/04 12:15:58;;;;;;;2.20;1.93;;;;;;;;;;5053750;28;20202;-64
2023/12/04 12:18:25;;;;;;;2.60;2.40;;;;;;;;;;5055813;28;20203;-64
2023/12/04 12:20:52;;;;;;;2.47;2.27;;;;;;;;;;5054998;28;20223;-64
2023/12/04 12:23:21;;;;;;;2.23;2.03;;;;;;;;;;5050907;28;20209;-63
2023/12/04 12:25:49;;;;;;;2.50;2.30;;;;;;;;;;5056428;28;20221;-64
2023/12/04 12:28:17;;;;;;;2.37;2.17;;;;;;;;;;5054493;28;20237;-65
2023/12/04 12:30:45;;;;;;;2.03;1.93;;;;;;;;;;5056245;28;20194;-65
2023/12/04 12:33:14;;;;;;;2.60;2.40;;;;;;;;;;5050925;28;20199;-63
2023/12/04 12:35:42;;;;;;;2.47;2.27;;;;;;;;;;5053267;28;20198;-64
2023/12/04 12:38:09;;;;;;;2.50;2.30;;;;;;;;;;5054203;28;20202;-63
2023/12/04 12:40:37;;;;;;;2.07;1.93;;;;;;;;;;5055639;28;20218;-63
2023/12/04 12:43:06;;;;;;;2.30;2.10;;;;;;;;;;5052322;28;20242;-64
2023/12/04 12:45:40;;;;;;;2.53;2.33;;;;;;;;;;5054874;28;20202;-63
2023/12/04 12:48:07;;;;;;;2.60;2.40;;;;;;;;;;5052232;28;20210;-63
2023/12/04 12:50:34;;;;;;;2.60;2.40;;;;;;;;;;5056247;28;20199;-63
2023/12/04 12:53:03;;;;;;;2.53;2.33;;;;;;;;;;5054812;28;20202;-63
2023/12/04 12:55:30;;;;;;;2.27;2.07;;;;;;;;;;5052507;28;20202;-63
2023/12/04 12:57:58;;;;;;;2.50;2.20;;;;;;;;;;5054247;28;20204;-65
2023/12/04 13:00:26;;;;;;;2.20;2.10;;;;;;;;;;5055046;28;20227;-63
2023/12/04 13:02:54;;;;;;;2.13;2.03;;;;;;;;;;5055842;28;20223;-63
2023/12/04 13:05:21;;;;;;;2.07;1.97;;;;;;;;;;5052894;28;20210;-64
2023/12/04 13:07:48;;;;;;;2.23;2.03;;;;;;;;;;5057030;28;20210;-64
2023/12/04 13:10:15;;;;;;;2.23;2.13;;;;;;;;;;5054019;28;20191;-63
2023/12/04 13:12:42;;;;;;;2.03;1.93;;;;;;;;;;5054194;28;20239;-64
2023/12/04 13:15:11;;;;;;;2.20;2.00;;;;;;;;;;5051524;28;20202;-63
2023/12/04 13:17:38;;;;;;;1.90;1.80;;;;;;;;;;5054503;28;20214;-64
2023/12/04 13:20:08;;;;;;;2.30;2.10;;;;;;;;;;5055686;28;20220;-62
2023/12/04 13:22:35;;;;;;;2.30;2.20;;;;;;;;;;5058719;28;20214;-62
2023/12/04 13:25:07;;;;;;;2.10;2.00;;;;;;;;;;5056202;28;20207;-63
2023/12/04 13:27:34;;;;;;;2.30;2.10;;;;;;;;;;5055577;28;20218;-68
2023/12/04 13:30:01;;;;;;;2.30;2.10;;;;;;;;;;5055995;28;20199;-68
2023/12/04 13:32:30;;;;;;;2.50;2.30;;;;;;;;;;5056511;28;20210;-67
2023/12/04 13:34:57;;;;;;;2.17;1.97;;;;;;;;;;5053738;28;20217;-68
2023/12/04 13:37:25;;;;;;;2.70;2.50;;;;;;;;;;5055528;28;20210;-67
2023/12/04 13:39:57;;;;;;;2.77;2.57;;;;;;;;;;5056057;28;20245;-68
2023/12/04 13:45:10;;;;;;;3.10;2.80;;;;;;;;;;5054752;28;20249;-68
2023/12/04 13:47:38;;;;;;;2.50;2.30;;;;;;;;;;5054440;28;21963;-67
2023/12/04 13:50:08;;;;;;;3.03;2.57;;;;;;;;;;5053744;28;20192;-68
2023/12/04 13:52:35;;;;;;;2.20;2.03;;;;;;;;;;5053710;28;20213;-67
2023/12/04 13:55:11;;;;;;;2.53;2.33;;;;;;;;;;5054652;28;20206;-68
2023/12/04 13:57:52;;;;;;;2.70;2.00;;;;;;;;;;5053739;28;20344;-67
2023/12/04 14:00:20;;;;;;;1.60;1.50;;;;;;;;;;5057254;28;20217;-67
2023/12/04 14:02:48;;;;;;;1.83;1.73;;;;;;;;;;5051863;28;20202;-68
2023/12/04 14:05:15;;;;;;;1.50;1.40;;;;;;;;;;5052899;28;20356;-69
2023/12/04 14:07:43;;;;;;;1.60;1.50;;;;;;;;;;5054596;28;20199;-68
2023/12/04 14:10:11;;;;;;;1.93;1.67;;;;;;;;;;5052986;28;20203;-68
2023/12/04 14:12:38;;;;;;;2.13;1.90;;;;;;;;;;5054095;28;20203;-68
2023/12/04 14:15:05;;;;;;;2.50;2.23;;;;;;;;;;5055417;28;21627;-68
2023/12/04 14:17:33;;;;;;;1.80;1.70;;;;;;;;;;5055125;28;20204;-67
2023/12/04 14:20:05;;;;;;;1.70;1.60;;;;;;;;;;5055932;28;20218;-67
2023/12/04 14:22:32;;;;;;;1.60;1.50;;;;;;;;;;5053933;28;20500;-67
2023/12/04 14:24:59;;;;;;;1.70;1.60;;;;;;;;;;5054643;28;20209;-68
2023/12/04 14:27:27;;;;;;;1.20;1.20;;;;;;;;;;5056287;28;20218;-68
2023/12/04 14:29:54;;;;;;;1.33;1.27;;;;;;;;;;5053663;28;20200;-68
2023/12/04 14:32:21;;;;;;;1.80;1.70;;;;;;;;;;5053647;28;20203;-67
2023/12/04 14:34:48;;;;;;;1.60;1.50;;;;;;;;;;5053576;28;20250;-67
2023/12/04 14:37:17;;;;;;;1.60;1.50;;;;;;;;;;5057001;28;20199;-67
2023/12/04 14:39:45;;;;;;;1.43;1.33;;;;;;;;;;5054012;28;20225;-68
2023/12/04 14:42:12;;;;;;;1.60;1.50;;;;;;;;;;5052485;28;20296;-67
2023/12/04 14:44:39;;;;;;;1.70;1.60;;;;;;;;;;5056187;28;20211;-68
2023/12/04 14:47:08;;;;;;;1.70;1.60;;;;;;;;;;5056266;28;20213;-69